Time;durP1;ratioP1;P1;durP2;ratioP2;P2;SDS_P1;SDS_P2;PMS_P1;PMS_P2;Temp;Humidity;BMP_temperature;BMP_pressure;BME280_temperature;BME280_humidity;BME280_pressure;Samples;Min_cycle;Max_cycle;Signal;HPM_P1;HPM_P2
2021/09/29 00:01:43;;;;;;;;;;;;;;;9.73;92.31;101186.69;1640322;85;21149;-85
2021/09/29 00:04:08;;;;;;;;;;;;;;;9.67;92.36;101185.38;1636380;85;20253;-86
2021/09/29 00:06:34;;;;;;;;;;;;;;;9.69;92.54;101187.89;1636580;87;20170;-85
2021/09/29 00:08:59;;;;;;;;;;;;;;;9.70;92.31;101189.08;1639526;85;20175;-86
2021/09/29 00:11:25;;;;;;;;;;;;;;;9.73;92.18;101188.01;1624380;88;20130;-86
2021/09/29 00:13:51;;;;;;;;;;;;;;;9.66;92.59;101181.55;1611304;87;21162;-86
2021/09/29 00:16:16;;;;;;;;;;;;;;;9.71;92.24;101188.63;1621205;87;20167;-86
2021/09/29 00:18:42;;;;;;;;;;;;;;;9.70;92.51;101183.81;1626683;88;20144;-85
2021/09/29 00:21:08;;;;;;;;;;;;;;;9.74;92.58;101188.83;1651593;86;20502;-85
2021/09/29 00:23:34;;;;;;;;;;;;;;;9.77;92.28;101180.21;1647732;86;20256;-86
2021/09/29 00:25:59;;;;;;;;;;;;;;;9.80;91.82;101185.70;1642882;86;21244;-86
2021/09/29 00:28:25;;;;;;;;;;;;;;;9.72;92.68;101185.00;1634252;87;20174;-86
2021/09/29 00:31:39;;;;;;;;;;;;;;;9.72;93.07;101186.81;1643586;85;20142;-87
2021/09/29 00:33:22;;;;;;;;;;;;;;;9.74;93.08;101183.56;1632984;85;20111;-86
2021/09/29 00:35:47;;;;;;;;;;;;;;;9.77;92.88;101179.35;1640409;85;20194;-85
2021/09/29 00:38:13;;;;;;;;;;;;;;;9.76;93.05;101177.20;1641237;85;21186;-85
2021/09/29 00:40:41;;;;;;;;;;;;;;;9.73;93.10;101181.41;1642965;85;20221;-85
2021/09/29 00:43:07;;;;;;;;;;;;;;;9.77;93.11;101178.03;1642854;85;20155;-86
2021/09/29 00:45:32;;;;;;;;;;;;;;;9.77;93.33;101172.76;1640802;85;21248;-86
2021/09/29 00:47:58;;;;;;;;;;;;;;;9.78;93.18;101171.31;1640667;87;20145;-86
2021/09/29 00:50:24;;;;;;;;;;;;;;;9.80;93.29;101167.23;1638786;85;21115;-86
2021/09/29 00:52:49;;;;;;;;;;;;;;;9.82;93.14;101166.16;1646610;85;20166;-86
2021/09/29 00:55:15;;;;;;;;;;;;;;;9.85;93.10;101166.36;1635605;87;20233;-86
2021/09/29 00:57:41;;;;;;;;;;;;;;;9.86;93.00;101164.09;1642366;86;20109;-86
2021/09/29 01:00:07;;;;;;;;;;;;;;;9.89;93.05;101163.84;1636074;86;20252;-87
2021/09/29 01:02:33;;;;;;;;;;;;;;;9.91;92.80;101161.90;1639196;86;21282;-86
2021/09/29 01:04:59;;;;;;;;;;;;;;;9.94;92.59;101162.97;1638828;86;20295;-85
2021/09/29 01:07:42;;;;;;;;;;;;;;;9.93;92.58;101156.03;1638128;85;21039;-86
2021/09/29 01:10:10;;;;;;;;;;;;;;;9.93;92.58;101162.63;1641191;86;20127;-85
2021/09/29 01:13:05;;;;;;;;;;;;;;;9.97;92.53;101157.44;1621602;86;20178;-86
2021/09/29 01:15:32;;;;;;;;;;;;;;;10.01;92.07;101152.27;1619357;87;21025;-86
2021/09/29 01:18:03;;;;;;;;;;;;;;;9.92;92.50;101159.63;1652367;86;20230;-85
2021/09/29 01:20:37;;;;;;;;;;;;;;;9.95;92.52;101144.86;1641015;86;20122;-85
2021/09/29 01:23:12;;;;;;;;;;;;;;;9.89;92.65;101145.37;1640101;87;20179;-87
2021/09/29 01:26:01;;;;;;;;;;;;;;;9.84;93.14;101152.84;1638819;87;20126;-87
2021/09/29 01:28:29;;;;;;;;;;;;;;;9.83;92.98;101147.19;1639799;86;21141;-87
2021/09/29 01:30:59;;;;;;;;;;;;;;;9.89;92.97;101140.91;1626251;86;20520;-85
2021/09/29 01:33:25;;;;;;;;;;;;;;;9.86;93.33;101140.34;1621690;86;20150;-85
2021/09/29 01:35:51;;;;;;;;;;;;;;;9.66;94.66;101132.30;1622942;87;20195;-84
2021/09/29 01:38:16;;;;;;;;;;;;;;;9.58;95.26;101145.25;1620362;86;20153;-84
2021/09/29 01:40:42;;;;;;;;;;;;;;;9.51;95.51;101139.64;1619036;86;21107;-85
2021/09/29 01:43:08;;;;;;;;;;;;;;;9.44;96.40;101137.63;1612066;86;20463;-85
2021/09/29 01:45:35;;;;;;;;;;;;;;;9.40;96.72;101134.87;1623907;86;20155;-85
2021/09/29 01:48:01;;;;;;;;;;;;;;;9.39;96.97;101131.91;1614818;86;20203;-85
2021/09/29 01:50:28;;;;;;;;;;;;;;;9.32;97.34;101140.30;1617498;86;20178;-85
2021/09/29 01:52:54;;;;;;;;;;;;;;;9.31;97.69;101139.11;1622351;86;21202;-86
2021/09/29 01:55:19;;;;;;;;;;;;;;;9.31;97.59;101141.25;1625512;86;20169;-85
2021/09/29 01:57:46;;;;;;;;;;;;;;;9.33;97.30;101139.81;1615859;87;20712;-85
2021/09/29 02:00:12;;;;;;;;;;;;;;;9.36;96.99;101137.42;1613130;87;20572;-86
2021/09/29 02:02:42;;;;;;;;;;;;;;;9.30;97.48;101136.94;1618271;87;20492;-85
2021/09/29 02:05:08;;;;;;;;;;;;;;;9.33;97.38;101138.50;1615269;87;21154;-86
2021/09/29 02:07:33;;;;;;;;;;;;;;;9.37;97.26;101136.44;1619247;87;20593;-85
2021/09/29 02:09:59;;;;;;;;;;;;;;;9.30;97.25;101133.47;1620665;87;20163;-85
2021/09/29 02:12:24;;;;;;;;;;;;;;;9.31;97.24;101135.98;1613984;88;20221;-85
2021/09/29 02:14:50;;;;;;;;;;;;;;;9.37;96.95;101129.84;1615616;87;20170;-85
2021/09/29 02:17:17;;;;;;;;;;;;;;;9.41;96.73;101134.75;1616686;87;21180;-86
2021/09/29 02:19:46;;;;;;;;;;;;;;;9.40;96.85;101133.55;1614378;88;20170;-85
2021/09/29 02:22:14;;;;;;;;;;;;;;;9.44;96.54;101134.99;1618027;87;20523;-86
2021/09/29 02:24:40;;;;;;;;;;;;;;;9.44;96.43;101132.36;1616089;87;20496;-85
2021/09/29 02:27:05;;;;;;;;;;;;;;;9.48;96.29;101137.75;1619883;87;20151;-85
2021/09/29 02:29:31;;;;;;;;;;;;;;;9.51;95.84;101140.14;1646528;86;21214;-86
2021/09/29 02:31:57;;;;;;;;;;;;;;;9.52;95.63;101133.42;1630723;87;20226;-85
2021/09/29 02:34:22;;;;;;;;;;;;;;;9.53;95.66;101135.56;1637204;86;20150;-84
2021/09/29 02:36:48;;;;;;;;;;;;;;;9.53;95.32;101132.44;1631538;86;20170;-85
2021/09/29 02:39:13;;;;;;;;;;;;;;;9.53;95.37;101126.34;1627213;87;20166;-85
2021/09/29 02:41:39;;;;;;;;;;;;;;;9.46;95.79;101133.06;1627037;86;21212;-85
2021/09/29 02:44:08;;;;;;;;;;;;;;;9.49;95.60;101130.17;1634753;86;20236;-86
2021/09/29 02:46:34;;;;;;;;;;;;;;;9.45;95.74;101136.19;1636235;86;20476;-86
2021/09/29 02:48:59;;;;;;;;;;;;;;;9.49;95.43;101132.81;1644890;85;20654;-85
2021/09/29 02:51:25;;;;;;;;;;;;;;;9.41;95.88;101125.52;1629320;86;20197;-86
2021/09/29 02:53:50;;;;;;;;;;;;;;;9.41;96.00;101127.33;1623075;87;21104;-85
2021/09/29 02:56:16;;;;;;;;;;;;;;;9.43;95.70;101131.53;1623769;87;20249;-85
2021/09/29 02:58:41;;;;;;;;;;;;;;;9.38;95.91;101132.85;1621643;87;20193;-87
2021/09/29 03:01:07;;;;;;;;;;;;;;;9.39;95.80;101131.91;1623243;86;20147;-87
2021/09/29 03:03:33;;;;;;;;;;;;;;;9.42;95.51;101129.84;1622004;86;20151;-86
2021/09/29 03:05:58;;;;;;;;;;;;;;;9.46;95.34;101132.59;1617901;86;21092;-86
2021/09/29 03:08:24;;;;;;;;;;;;;;;9.46;95.13;101134.38;1619784;87;20203;-87
2021/09/29 03:10:50;;;;;;;;;;;;;;;9.42;95.17;101134.29;1625169;86;20187;-87
2021/09/29 03:13:15;;;;;;;;;;;;;;;9.44;95.05;101128.41;1630083;86;20248;-87
2021/09/29 03:15:41;;;;;;;;;;;;;;;9.41;95.24;101128.66;1618134;87;20452;-86
2021/09/29 03:18:06;;;;;;;;;;;;;;;9.42;95.05;101126.38;1648688;86;21121;-86
2021/09/29 03:20:34;;;;;;;;;;;;;;;9.44;94.91;101132.36;1653429;86;20176;-87
2021/09/29 03:22:59;;;;;;;;;;;;;;;9.34;95.32;101127.83;1649748;86;20133;-87
2021/09/29 03:25:25;;;;;;;;;;;;;;;9.19;96.50;101125.59;1656780;86;20137;-86
2021/09/29 03:27:51;;;;;;;;;;;;;;;9.03;97.78;101128.63;1655536;86;21217;-87
2021/09/29 03:30:16;;;;;;;;;;;;;;;8.93;98.57;101123.23;1651941;86;21824;-87
2021/09/29 03:32:42;;;;;;;;;;;;;;;8.92;98.59;101121.09;1656230;86;20185;-86
2021/09/29 03:35:11;;;;;;;;;;;;;;;8.87;98.58;101116.67;1655562;86;20166;-86
2021/09/29 03:37:37;;;;;;;;;;;;;;;8.83;99.42;101120.49;1629438;86;20180;-87
2021/09/29 03:40:03;;;;;;;;;;;;;;;8.74;99.84;101123.84;1624950;86;21492;-87
2021/09/29 03:42:29;;;;;;;;;;;;;;;8.72;99.81;101123.97;1628973;86;21182;-87
2021/09/29 03:44:54;;;;;;;;;;;;;;;8.66;100.00;101124.94;1628198;87;20150;-87
2021/09/29 03:47:20;;;;;;;;;;;;;;;8.73;99.82;101127.42;1645379;85;20178;-87
2021/09/29 03:49:45;;;;;;;;;;;;;;;8.79;99.35;101123.86;1643526;85;20098;-87
2021/09/29 03:52:11;;;;;;;;;;;;;;;8.86;98.71;101118.93;1638354;85;20531;-87
2021/09/29 03:54:37;;;;;;;;;;;;;;;8.84;98.67;101123.95;1643619;85;22013;-87
2021/09/29 03:57:03;;;;;;;;;;;;;;;8.79;98.82;101123.00;1648491;85;20184;-87
2021/09/29 03:59:28;;;;;;;;;;;;;;;8.80;98.68;101120.24;1644378;85;20682;-86
2021/09/29 04:01:54;;;;;;;;;;;;;;;8.83;98.43;101120.49;1646634;85;20134;-86
2021/09/29 04:04:19;;;;;;;;;;;;;;;8.81;98.47;101114.52;1640638;85;20246;-86
2021/09/29 04:06:46;;;;;;;;;;;;;;;8.87;98.08;101118.45;1639772;85;21215;-87
2021/09/29 04:09:11;;;;;;;;;;;;;;;8.91;97.70;101115.94;1636722;85;20325;-86
2021/09/29 04:11:38;;;;;;;;;;;;;;;8.78;98.06;101112.13;1635991;85;20140;-86
2021/09/29 04:14:04;;;;;;;;;;;;;;;8.76;98.52;101114.87;1640833;85;20180;-87
2021/09/29 04:16:30;;;;;;;;;;;;;;;8.81;98.13;101111.88;1640215;85;20121;-86
2021/09/29 04:18:56;;;;;;;;;;;;;;;8.86;97.96;101108.89;1646545;85;21118;-87
2021/09/29 04:21:22;;;;;;;;;;;;;;;8.87;97.72;101111.41;1644472;86;20151;-87
2021/09/29 04:23:47;;;;;;;;;;;;;;;8.90;97.62;101107.66;1643902;85;20142;-86
2021/09/29 04:26:13;;;;;;;;;;;;;;;8.87;97.60;101106.13;1626636;86;21024;-87
2021/09/29 04:28:40;;;;;;;;;;;;;;;8.84;97.72;101109.01;1630846;86;20124;-87
2021/09/29 04:31:06;;;;;;;;;;;;;;;8.82;97.81;101109.59;1625278;86;21976;-87
2021/09/29 04:33:32;;;;;;;;;;;;;;;8.85;97.49;101113.30;1622978;87;20139;-87
2021/09/29 04:35:59;;;;;;;;;;;;;;;8.83;97.65;101116.54;1622065;87;20139;-87
2021/09/29 04:38:25;;;;;;;;;;;;;;;8.85;97.63;101115.93;1636808;87;20206;-87
2021/09/29 04:40:50;;;;;;;;;;;;;;;8.90;97.31;101111.16;1640436;86;20156;-87
2021/09/29 04:43:16;;;;;;;;;;;;;;;8.91;97.12;101112.81;1623202;87;21114;-87
2021/09/29 04:45:43;;;;;;;;;;;;;;;8.84;97.28;101115.59;1610702;87;20483;-86
2021/09/29 04:48:11;;;;;;;;;;;;;;;8.88;97.26;101111.73;1625372;86;20200;-87
2021/09/29 04:50:36;;;;;;;;;;;;;;;8.92;97.13;101110.55;1647472;85;20326;-86
2021/09/29 04:53:02;;;;;;;;;;;;;;;8.85;97.20;101110.66;1643235;86;20153;-89
2021/09/29 04:55:30;;;;;;;;;;;;;;;8.80;97.77;101112.34;1641693;86;20172;-87
2021/09/29 04:57:55;;;;;;;;;;;;;;;8.83;97.87;101118.34;1624876;86;20160;-87
2021/09/29 05:00:23;;;;;;;;;;;;;;;8.74;98.27;101118.58;1629336;85;20153;-86
2021/09/29 05:02:49;;;;;;;;;;;;;;;8.73;98.40;101115.58;1628342;86;20178;-86
2021/09/29 05:05:15;;;;;;;;;;;;;;;8.64;99.28;101118.47;1647334;86;20170;-86
2021/09/29 05:07:41;;;;;;;;;;;;;;;8.66;99.31;101113.09;1650069;86;21166;-86
2021/09/29 05:10:11;;;;;;;;;;;;;;;8.68;99.46;101111.98;1648891;86;20775;-86
2021/09/29 05:12:38;;;;;;;;;;;;;;;8.71;99.50;101118.82;1648595;85;20172;-87
2021/09/29 05:15:04;;;;;;;;;;;;;;;8.69;99.82;101113.67;1647622;85;20185;-84
2021/09/29 05:17:31;;;;;;;;;;;;;;;8.78;99.35;101109.48;1646026;86;20158;-85
2021/09/29 05:19:56;;;;;;;;;;;;;;;8.72;99.69;101112.61;1647039;86;20569;-85
2021/09/29 05:22:22;;;;;;;;;;;;;;;8.77;99.64;101119.66;1643939;86;20871;-86
2021/09/29 05:24:49;;;;;;;;;;;;;;;8.77;99.72;101108.63;1643827;86;20132;-85
2021/09/29 05:27:14;;;;;;;;;;;;;;;8.75;100.00;101109.24;1624050;86;20162;-85
2021/09/29 05:29:42;;;;;;;;;;;;;;;8.70;100.00;101111.86;1626994;86;20185;-88
2021/09/29 05:32:07;;;;;;;;;;;;;;;8.69;100.00;101111.53;1611626;87;21115;-85
2021/09/29 05:34:33;;;;;;;;;;;;;;;8.70;100.00;101115.36;1616632;87;20195;-85
2021/09/29 05:37:03;;;;;;;;;;;;;;;8.76;100.00;101113.56;1612845;87;20192;-85
2021/09/29 05:39:28;;;;;;;;;;;;;;;8.85;100.00;101111.98;1614385;87;20210;-84
2021/09/29 05:41:54;;;;;;;;;;;;;;;8.93;100.00;101114.01;1618767;86;20245;-82
2021/09/29 05:44:19;;;;;;;;;;;;;;;8.96;100.00;101111.98;1611147;87;21219;-85
2021/09/29 05:46:45;;;;;;;;;;;;;;;9.06;100.00;101109.91;1612886;87;20480;-85
2021/09/29 05:49:10;;;;;;;;;;;;;;;9.16;99.84;101109.55;1618179;87;20139;-85
2021/09/29 05:51:36;;;;;;;;;;;;;;;9.24;99.22;101103.16;1616895;87;20135;-84
2021/09/29 05:54:01;;;;;;;;;;;;;;;9.28;98.96;101107.23;1648347;86;20159;-84
2021/09/29 05:56:27;;;;;;;;;;;;;;;9.36;98.66;101103.16;1619323;86;21590;-85
2021/09/29 05:58:53;;;;;;;;;;;;;;;9.42;98.60;101106.12;1637109;86;20331;-86
2021/09/29 06:01:18;;;;;;;;;;;;;;;9.49;98.29;101101.17;1638571;86;20159;-88
2021/09/29 06:03:44;;;;;;;;;;;;;;;9.53;98.23;101100.80;1636786;86;20717;-85
2021/09/29 06:06:09;;;;;;;;;;;;;;;9.60;97.83;101101.15;1633364;86;20174;-85
2021/09/29 06:08:35;;;;;;;;;;;;;;;9.67;97.61;101099.66;1637489;86;21242;-85
2021/09/29 06:11:00;;;;;;;;;;;;;;;9.75;97.20;101100.84;1636894;86;20159;-85
2021/09/29 06:13:26;;;;;;;;;;;;;;;9.78;97.12;101097.95;1635511;86;20183;-88
2021/09/29 06:15:52;;;;;;;;;;;;;;;9.85;96.91;101105.69;1637077;87;20729;-84
2021/09/29 06:18:17;;;;;;;;;;;;;;;9.83;96.79;101098.39;1613571;86;20202;-85
2021/09/29 06:20:46;;;;;;;;;;;;;;;9.90;96.28;101096.92;1636540;86;21154;-87
2021/09/29 06:23:13;;;;;;;;;;;;;;;9.97;96.02;101094.11;1639240;86;20131;-86
2021/09/29 06:25:39;;;;;;;;;;;;;;;9.99;95.94;101094.84;1635949;86;20208;-86
2021/09/29 06:28:04;;;;;;;;;;;;;;;10.02;95.63;101093.25;1636637;86;21435;-86
2021/09/29 06:30:30;;;;;;;;;;;;;;;10.04;95.64;101101.87;1638445;86;20200;-86
2021/09/29 06:32:55;;;;;;;;;;;;;;;10.10;95.26;101096.57;1639057;86;21215;-90
2021/09/29 06:35:21;;;;;;;;;;;;;;;10.14;95.22;101099.28;1638712;87;21580;-85
2021/09/29 06:37:47;;;;;;;;;;;;;;;10.24;95.07;101091.44;1638012;87;20232;-86
2021/09/29 06:40:16;;;;;;;;;;;;;;;10.34;94.76;101094.98;1637819;86;20186;-86
2021/09/29 06:42:42;;;;;;;;;;;;;;;10.39;94.33;101091.48;1636922;87;20184;-86
2021/09/29 06:45:08;;;;;;;;;;;;;;;10.43;94.24;101093.86;1638393;86;21882;-86
2021/09/29 06:47:34;;;;;;;;;;;;;;;10.47;94.06;101087.33;1641617;86;20183;-87
2021/09/29 06:50:00;;;;;;;;;;;;;;;10.53;93.69;101090.30;1639248;86;20213;-86
2021/09/29 06:52:25;;;;;;;;;;;;;;;10.57;93.03;101088.22;1638615;86;21332;-85
2021/09/29 06:54:51;;;;;;;;;;;;;;;10.66;93.06;101088.73;1636909;86;20198;-84
2021/09/29 06:57:16;;;;;;;;;;;;;;;10.64;93.18;101093.30;1638953;86;21200;-86
2021/09/29 06:59:43;;;;;;;;;;;;;;;10.67;92.79;101087.75;1641865;86;20883;-85
2021/09/29 07:02:08;;;;;;;;;;;;;;;10.74;92.96;101086.75;1647371;86;20229;-87
2021/09/29 07:04:34;;;;;;;;;;;;;;;10.81;92.33;101091.00;1647369;86;20173;-87
2021/09/29 07:07:00;;;;;;;;;;;;;;;10.89;92.34;101084.55;1649000;85;20151;-85
2021/09/29 07:09:27;;;;;;;;;;;;;;;10.96;92.23;101087.84;1645642;86;21152;-86
2021/09/29 07:11:52;;;;;;;;;;;;;;;11.04;91.93;101087.16;1646008;86;20480;-94
2021/09/29 07:14:19;;;;;;;;;;;;;;;11.17;91.50;101088.72;1649942;86;20477;-84
2021/09/29 07:16:45;;;;;;;;;;;;;;;11.22;91.09;101089.16;1638942;86;20172;-86
2021/09/29 07:19:10;;;;;;;;;;;;;;;11.30;90.25;101091.95;1646362;86;20216;-84
2021/09/29 07:21:36;;;;;;;;;;;;;;;11.39;89.48;101087.16;1644450;85;21278;-87
2021/09/29 07:24:02;;;;;;;;;;;;;;;11.45;89.58;101093.21;1647472;86;20161;-85
2021/09/29 07:26:27;;;;;;;;;;;;;;;11.56;89.48;101095.35;1647216;86;20236;-86
2021/09/29 07:28:53;;;;;;;;;;;;;;;11.62;89.29;101086.39;1644283;86;20307;-87
2021/09/29 07:31:18;;;;;;;;;;;;;;;11.67;88.74;101085.97;1641016;86;20157;-87
2021/09/29 07:33:44;;;;;;;;;;;;;;;11.70;88.30;101089.66;1647324;86;21187;-89
2021/09/29 07:36:10;;;;;;;;;;;;;;;11.81;87.97;101086.86;1647737;86;20179;-88
2021/09/29 07:38:35;;;;;;;;;;;;;;;11.90;87.64;101086.98;1648887;85;20164;-85
2021/09/29 07:41:01;;;;;;;;;;;;;;;11.92;87.18;101082.40;1649386;86;20708;-85
2021/09/29 07:43:27;;;;;;;;;;;;;;;11.96;87.27;101085.13;1632800;87;20167;-88
2021/09/29 07:45:52;;;;;;;;;;;;;;;12.01;87.36;101082.91;1637078;87;21284;-88
2021/09/29 07:48:18;;;;;;;;;;;;;;;12.07;87.21;101082.30;1641130;86;20233;-87
2021/09/29 07:50:43;;;;;;;;;;;;;;;12.12;86.65;101070.81;1626527;87;20162;-87
2021/09/29 07:53:09;;;;;;;;;;;;;;;12.12;86.51;101074.78;1633409;87;20282;-86
2021/09/29 07:55:35;;;;;;;;;;;;;;;12.18;86.08;101079.51;1635807;86;20226;-86
2021/09/29 07:58:00;;;;;;;;;;;;;;;12.29;86.00;101080.30;1631200;86;21211;-85
2021/09/29 08:00:26;;;;;;;;;;;;;;;12.36;85.52;101076.09;1628550;87;20845;-86
2021/09/29 08:02:52;;;;;;;;;;;;;;;12.38;84.69;101074.13;1632007;87;20147;-86
2021/09/29 08:05:19;;;;;;;;;;;;;;;12.37;83.87;101065.86;1634645;86;20163;-85
2021/09/29 08:07:49;;;;;;;;;;;;;;;12.47;83.82;101069.78;1636979;86;20199;-86
2021/09/29 08:10:15;;;;;;;;;;;;;;;12.51;83.63;101067.20;1632755;86;21181;-86
2021/09/29 08:12:40;;;;;;;;;;;;;;;12.53;83.17;101058.10;1637523;86;20222;-85
2021/09/29 08:15:12;;;;;;;;;;;;;;;12.59;83.00;101063.81;1631258;86;20194;-86
2021/09/29 08:17:34;;;;;;;;;;;;;;;12.63;82.92;101058.55;1628734;86;20197;-87
2021/09/29 08:20:00;;;;;;;;;;;;;;;12.64;83.06;101057.58;1630932;86;20170;-84
2021/09/29 08:22:25;;;;;;;;;;;;;;;12.71;82.16;101051.54;1635492;86;21112;-87
2021/09/29 08:30:43;;;;;;;;;;;;;;;12.93;81.42;101050.28;1630891;87;20165;-86
2021/09/29 08:33:51;;;;;;;;;;;;;;;13.04;80.74;101044.44;1627057;87;20191;-88
2021/09/29 08:38:13;;;;;;;;;;;;;;;13.13;80.19;101044.86;1636695;87;20241;-91
2021/09/29 08:40:48;;;;;;;;;;;;;;;13.17;80.12;101036.11;1637092;86;20091;-86
2021/09/29 08:43:25;;;;;;;;;;;;;;;13.23;79.53;101035.00;1624368;86;20102;-91
2021/09/29 08:46:21;;;;;;;;;;;;;;;13.35;79.11;101036.14;1615258;87;20228;-87
2021/09/29 08:48:31;;;;;;;;;;;;;;;13.45;78.61;101022.28;1614114;87;20200;-87
2021/09/29 08:53:56;;;;;;;;;;;;;;;13.66;77.20;101025.94;1634946;86;20437;-87
2021/09/29 09:18:12;;;;;;;;;;;;;;;14.35;73.71;101008.22;1634136;86;20150;-83
2021/09/29 09:20:43;;;;;;;;;;;;;;;14.42;73.26;100998.28;1601089;87;20178;-85
2021/09/29 09:23:05;;;;;;;;;;;;;;;14.50;72.84;100997.01;1619500;86;20250;-89
2021/09/29 09:25:38;;;;;;;;;;;;;;;14.53;72.80;100999.34;1626576;86;20143;-86
2021/09/29 09:28:04;;;;;;;;;;;;;;;14.59;72.48;100997.37;1622289;86;21120;-85
2021/09/29 09:30:34;;;;;;;;;;;;;;;14.67;71.90;100994.76;1632521;86;20199;-84
2021/09/29 09:33:00;;;;;;;;;;;;;;;14.68;71.77;101003.08;1636231;87;20960;-87
2021/09/29 09:35:29;;;;;;;;;;;;;;;14.72;71.47;100992.43;1626588;87;20132;-85
2021/09/29 09:37:57;;;;;;;;;;;;;;;14.83;71.63;100985.16;1634175;87;20502;-84
2021/09/29 09:40:23;;;;;;;;;;;;;;;14.86;71.18;100975.52;1627988;86;20236;-83
2021/09/29 09:42:51;;;;;;;;;;;;;;;14.82;69.07;100978.16;1628024;87;20138;-83
2021/09/29 09:45:19;;;;;;;;;;;;;;;14.86;69.03;100978.18;1634016;86;20140;-86
2021/09/29 09:47:45;;;;;;;;;;;;;;;14.97;69.25;100963.22;1631534;86;20151;-84
2021/09/29 09:50:11;;;;;;;;;;;;;;;15.10;68.77;100972.55;1637748;85;20353;-84
2021/09/29 09:52:42;;;;;;;;;;;;;;;15.14;68.32;100972.05;1641671;86;20989;-81
2021/09/29 09:55:16;;;;;;;;;;;;;;;15.20;68.09;100966.58;1636383;86;20149;-82
2021/09/29 09:57:42;;;;;;;;;;;;;;;15.16;66.87;100960.73;1637599;86;20195;-82
2021/09/29 10:00:10;;;;;;;;;;;;;;;15.23;65.69;100963.58;1630659;86;20266;-83
2021/09/29 10:02:42;;;;;;;;;;;;;;;15.33;65.36;100967.39;1632999;86;20186;-85
2021/09/29 10:05:09;;;;;;;;;;;;;;;15.39;65.79;100960.89;1633732;85;22099;-83
2021/09/29 10:07:35;;;;;;;;;;;;;;;15.46;65.11;100958.89;1632420;86;20256;-82
2021/09/29 10:10:08;;;;;;;;;;;;;;;15.58;65.32;100954.88;1634944;86;20142;-90
2021/09/29 10:13:17;;;;;;;;;;;;;;;15.70;64.91;100966.84;1629919;86;38808;-87
2021/09/29 10:23:15;;;;;;;;;;;;;;;15.90;62.62;100950.52;1626004;86;20205;-84
2021/09/29 10:28:40;;;;;;;;;;;;;;;16.23;62.74;100932.55;1633864;86;20540;-87
2021/09/29 10:31:27;;;;;;;;;;;;;;;16.32;62.58;100936.02;1615775;87;21369;-85
2021/09/29 10:33:58;;;;;;;;;;;;;;;16.23;59.18;100938.39;1612212;87;20439;-84
2021/09/29 10:36:39;;;;;;;;;;;;;;;16.32;59.56;100932.02;1627804;86;20218;-84
2021/09/29 10:44:25;;;;;;;;;;;;;;;16.33;60.09;100921.70;1625689;86;20359;-87
2021/09/29 10:47:03;;;;;;;;;;;;;;;16.39;60.04;100934.81;1633709;86;20194;-85
2021/09/29 11:11:54;;;;;;;;;;;;;;;16.72;57.37;100917.27;1625170;86;20172;-84
2021/09/29 11:30:23;;;;;;;;;;;;;;;17.05;56.82;100879.19;1627148;87;20132;-87
2021/09/29 11:33:36;;;;;;;;;;;;;;;17.20;56.66;100880.05;1618288;87;20591;-86
2021/09/29 11:35:26;;;;;;;;;;;;;;;17.23;56.17;100886.36;1608816;87;20163;-84
2021/09/29 11:38:04;;;;;;;;;;;;;;;17.36;56.19;100874.23;1620032;87;20303;-84
2021/09/29 12:10:26;;;;;;;;;;;;;;;18.04;53.35;100854.91;1621590;86;20166;-85
2021/09/29 12:12:53;;;;;;;;;;;;;;;17.86;53.10;100846.44;1597534;87;20608;-85
2021/09/29 12:15:19;;;;;;;;;;;;;;;17.79;53.07;100850.37;1623701;86;20564;-83
2021/09/29 12:17:49;;;;;;;;;;;;;;;17.68;53.17;100845.48;1618773;86;21111;-85
2021/09/29 12:20:24;;;;;;;;;;;;;;;17.78;53.93;100845.21;1620368;87;20217;-88
2021/09/29 12:22:49;;;;;;;;;;;;;;;17.70;53.85;100838.95;1595065;88;20155;-84
2021/09/29 12:26:18;;;;;;;;;;;;;;;17.89;54.20;100826.87;1624899;87;20189;-87
2021/09/29 12:28:15;;;;;;;;;;;;;;;17.89;53.93;100832.73;1607278;88;20121;-85
2021/09/29 12:30:34;;;;;;;;;;;;;;;17.93;54.08;100830.83;1622895;86;20211;-85
2021/09/29 12:33:32;;;;;;;;;;;;;;;18.00;54.37;100823.41;1627780;86;20216;-86
2021/09/29 12:35:49;;;;;;;;;;;;;;;17.99;54.52;100825.74;1622504;86;21029;-85
2021/09/29 12:38:15;;;;;;;;;;;;;;;17.87;53.97;100824.88;1625066;86;20151;-89
2021/09/29 12:40:42;;;;;;;;;;;;;;;18.09;54.00;100831.62;1626984;87;20175;-88
2021/09/29 12:43:12;;;;;;;;;;;;;;;18.17;53.49;100830.16;1618638;86;22036;-87
2021/09/29 12:45:39;;;;;;;;;;;;;;;18.31;53.73;100829.79;1625359;86;20135;-85
2021/09/29 12:48:07;;;;;;;;;;;;;;;18.38;53.64;100832.52;1606779;87;20159;-86
2021/09/29 12:56:01;;;;;;;;;;;;;;;18.29;52.67;100827.31;1627597;86;20166;-84
2021/09/29 12:58:27;;;;;;;;;;;;;;;18.14;52.89;100829.20;1623696;86;20142;-85
2021/09/29 13:00:53;;;;;;;;;;;;;;;18.17;53.24;100824.81;1620168;87;20300;-83
2021/09/29 13:03:18;;;;;;;;;;;;;;;18.26;53.26;100829.02;1625208;87;20147;-89
2021/09/29 13:05:46;;;;;;;;;;;;;;;18.26;53.14;100825.02;1625195;87;21317;-83
2021/09/29 13:08:12;;;;;;;;;;;;;;;18.43;53.09;100819.42;1631175;87;21028;-88
2021/09/29 13:10:38;;;;;;;;;;;;;;;18.37;52.99;100817.52;1637686;85;20139;-90
2021/09/29 13:13:03;;;;;;;;;;;;;;;18.25;52.48;100818.00;1641861;86;20203;-84
2021/09/29 13:15:29;;;;;;;;;;;;;;;18.30;52.58;100822.29;1645022;85;20144;-84
2021/09/29 13:17:56;;;;;;;;;;;;;;;18.35;52.81;100819.05;1647105;87;20175;-84
2021/09/29 13:20:28;;;;;;;;;;;;;;;18.28;52.68;100804.25;1639596;85;21129;-84
2021/09/29 13:23:04;;;;;;;;;;;;;;;18.40;52.67;100814.45;1644180;85;20160;-84
2021/09/29 13:36:34;;;;;;;;;;;;;;;18.62;52.87;100810.73;1623123;88;20171;-84
2021/09/29 13:38:59;;;;;;;;;;;;;;;18.81;52.36;100804.40;1623976;87;20560;-83
2021/09/29 13:41:25;;;;;;;;;;;;;;;18.81;52.08;100805.73;1652301;85;20175;-84
2021/09/29 13:43:51;;;;;;;;;;;;;;;18.57;52.33;100801.66;1639747;85;20178;-83
2021/09/29 13:46:16;;;;;;;;;;;;;;;18.50;52.40;100801.57;1630090;87;21108;-83
2021/09/29 13:48:42;;;;;;;;;;;;;;;18.28;52.03;100801.58;1643181;86;20471;-83
2021/09/29 13:51:08;;;;;;;;;;;;;;;18.17;52.14;100804.77;1640960;86;20276;-83
2021/09/29 13:53:34;;;;;;;;;;;;;;;18.05;52.27;100803.61;1644246;85;20508;-83
2021/09/29 13:56:03;;;;;;;;;;;;;;;17.91;52.40;100811.50;1637357;85;20150;-82
2021/09/29 14:30:49;;;;;;;;;;;;;;;18.00;52.98;100799.34;1617119;87;20171;-84
2021/09/29 14:33:23;;;;;;;;;;;;;;;17.90;53.25;100797.80;1623934;86;20281;-86
2021/09/29 14:35:42;;;;;;;;;;;;;;;17.84;53.83;100793.19;1623522;86;20215;-85
2021/09/29 14:38:10;;;;;;;;;;;;;;;17.74;53.62;100792.16;1632999;87;21890;-89
2021/09/29 14:40:35;;;;;;;;;;;;;;;17.68;53.89;100794.24;1630346;86;20222;-84
2021/09/29 14:43:01;;;;;;;;;;;;;;;17.79;53.79;100791.59;1624455;86;20125;-84
2021/09/29 14:45:26;;;;;;;;;;;;;;;17.68;54.21;100800.06;1633566;86;21218;-86
2021/09/29 14:47:52;;;;;;;;;;;;;;;17.69;53.94;100790.53;1633208;85;20149;-90
2021/09/29 14:50:26;;;;;;;;;;;;;;;17.79;54.21;100794.27;1629269;86;21183;-86
2021/09/29 14:52:45;;;;;;;;;;;;;;;17.91;54.14;100798.14;1628641;86;20141;-86
2021/09/29 14:55:11;;;;;;;;;;;;;;;18.25;53.53;100792.60;1627888;86;20149;-89
2021/09/29 14:57:37;;;;;;;;;;;;;;;20.04;50.05;100787.25;1644148;86;20617;-92
2021/09/29 15:00:04;;;;;;;;;;;;;;;20.69;47.85;100775.95;1642966;86;20407;-86
2021/09/29 15:02:29;;;;;;;;;;;;;;;20.22;48.30;100783.14;1640801;84;21258;-87
2021/09/29 15:04:55;;;;;;;;;;;;;;;19.58;49.19;100777.17;1639472;86;20176;-87
2021/09/29 15:07:21;;;;;;;;;;;;;;;19.62;49.37;100781.09;1636686;86;20175;-84
2021/09/29 15:09:47;;;;;;;;;;;;;;;20.56;47.75;100778.63;1638103;86;20239;-87
2021/09/29 15:12:12;;;;;;;;;;;;;;;20.51;47.65;100767.67;1639172;86;20491;-87
2021/09/29 15:17:16;;;;;;;;;;;;;;;19.59;49.07;100776.13;1637292;86;20143;-83
2021/09/29 15:19:45;;;;;;;;;;;;;;;19.21;49.79;100775.77;1637987;86;20171;-85
2021/09/29 15:22:26;;;;;;;;;;;;;;;18.92;50.50;100778.46;1637190;86;20515;-87
2021/09/29 15:25:06;;;;;;;;;;;;;;;18.74;51.20;100780.80;1633076;87;20278;-87
2021/09/29 15:30:04;;;;;;;;;;;;;;;18.41;52.19;100770.63;1633548;86;20155;-86
2021/09/29 15:46:33;;;;;;;;;;;;;;;17.68;54.37;100773.36;1635607;86;20190;-84